Terminal Aerodrome Forecast
Issued by NWS Charleston, WV

Current Version | Previous Version | Text Only | Print | Product List | Glossary Off
Versions: 1 2 3 4 5 6 7 8 9 10 11 12 13 14 15 16 17 18 19 20 21 22 23 24 25

000
FTUS41 KRLX 230244 AAA
TAFPKB
TAF AMD
KPKB 230244Z 2303/2324 00000KT P6SM SKC
     FM230700 00000KT 2SM BR SKC
     FM230900 00000KT 1/2SM FG SKC
     FM231000 00000KT 1/4SM FG OVC001
     FM231200 00000KT 1SM BR SCT001
     FM231400 00000KT P6SM SKC=

USA.gov is the U.S. government's official web portal to all federal, state and local government web resources and services.